Airfield :
LOGIN :

Register | Disclaimer

   EN    FR    IT 

 










Legend :    VFR   Marginal VFR   IFR   Intensive IFR   Very Intensive IFR
Visi :
Ceiling :
>= 8 km
>= 3000ft
5 to 8 km
1000 to 3000 ft
1500m to 5 km
500 to 1000 ft
800 to 1500m
200 to 500 ft
< 800m
< 200 ft
Symbols :   Thunderstorms  Fog  Heavy snow  Heavy precipitations  Wind > 20 kt
SIGMETs :     Misc.  Thunderstorms  Icing  Turbulence  Mountain Waves  Volcanic Ashes







- Airport Elevation : 505 ft
- IATA code : SXB
- Download approach charts


LFST - Strasbourg

CURRENT METAR :
  • 112100Z AUTO 02004KT 6000 NSC 01/01 Q1024 TEMPO 3000 BR

EXPIRED METARs :
  • 112030Z AUTO 30002KT 7000 NSC 02/01 Q1024 TEMPO 3000 BR
  • 112000Z AUTO VRB02KT 7000 NSC 02/01 Q1024 TEMPO 3000 BR
  • 111930Z AUTO 35004KT 7000 NSC 02/01 Q1025 TEMPO 3000 BR
  • 111900Z AUTO 04004KT 9000 NSC 02/01 Q1025 TEMPO 3000 BR
  • 111830Z AUTO 04001KT 8000 NSC 02/01 Q1024 TEMPO 3000 BR

TAF TAF LFST
Valid from the 11 at 18:00 until the 12 at 18:00 UTC


111700Z 1118/1218 VRB04KT 8000 FEW030 SCT060
PROB40 1118/1202 3000 BR NSC
BECMG 1202/1204 3000 BR OVC005
TEMPO 1204/1207 0800 BCFG OVC002
PROB40
TEMPO 1204/1207 0400 FZFG VV///
BECMG 1208/1210 9999 NSW
BECMG 1210/1212 03008KT BKN020
No reported NOTAMs for that airfield.



MET'MAP, your aeronautical weather chart ! - Copyright ORBIFLY December 2007 - Disclaimer

ORBIFLY MET'MAP TEAM :

Programming & Development : Alexandra Zaïnal
Concept & Development : Baudouin d'Aumeries
Co-Development & Prog : Marc-Olivier Méhu
Technical & hardware support : Manuel Goepfert

Contact : metmap@orbifly.com




SOURCES & CREDITS :

   NOAA